sensor_id;sensor_type;location;lat;lon;timestamp;P1;durP1;ratioP1;P2;durP2;ratioP2
73428;SDS011;61643;49.564;17.412;2022-07-06T00:01:30;13.43;;;3.58;;
73428;SDS011;61643;49.564;17.412;2022-07-06T00:03:55;6.50;;;3.08;;
73428;SDS011;61643;49.564;17.412;2022-07-06T00:06:21;9.88;;;2.97;;
73428;SDS011;61643;49.564;17.412;2022-07-06T00:08:48;5.97;;;3.20;;
73428;SDS011;61643;49.564;17.412;2022-07-06T00:11:13;9.23;;;3.00;;
73428;SDS011;61643;49.564;17.412;2022-07-06T00:13:39;15.27;;;3.67;;
73428;SDS011;61643;49.564;17.412;2022-07-06T00:16:05;14.63;;;3.63;;
73428;SDS011;61643;49.564;17.412;2022-07-06T00:18:30;14.27;;;4.60;;
73428;SDS011;61643;49.564;17.412;2022-07-06T00:20:56;10.57;;;3.03;;
73428;SDS011;61643;49.564;17.412;2022-07-06T00:23:21;10.23;;;3.20;;
73428;SDS011;61643;49.564;17.412;2022-07-06T00:25:47;8.48;;;3.20;;
73428;SDS011;61643;49.564;17.412;2022-07-06T00:28:13;4.60;;;2.80;;
73428;SDS011;61643;49.564;17.412;2022-07-06T00:30:39;9.20;;;2.78;;
73428;SDS011;61643;49.564;17.412;2022-07-06T00:33:04;6.20;;;3.10;;
73428;SDS011;61643;49.564;17.412;2022-07-06T00:35:29;7.30;;;2.70;;
73428;SDS011;61643;49.564;17.412;2022-07-06T00:37:55;6.80;;;2.80;;
73428;SDS011;61643;49.564;17.412;2022-07-06T00:40:20;4.30;;;2.87;;
73428;SDS011;61643;49.564;17.412;2022-07-06T00:42:46;8.95;;;2.85;;
73428;SDS011;61643;49.564;17.412;2022-07-06T00:45:13;5.50;;;2.67;;
73428;SDS011;61643;49.564;17.412;2022-07-06T00:47:40;7.13;;;2.75;;
73428;SDS011;61643;49.564;17.412;2022-07-06T00:50:09;8.77;;;2.85;;
73428;SDS011;61643;49.564;17.412;2022-07-06T00:52:40;5.55;;;2.95;;
73428;SDS011;61643;49.564;17.412;2022-07-06T00:55:16;7.07;;;2.88;;
73428;SDS011;61643;49.564;17.412;2022-07-06T00:57:44;5.18;;;2.83;;
73428;SDS011;61643;49.564;17.412;2022-07-06T01:00:11;6.72;;;2.70;;
73428;SDS011;61643;49.564;17.412;2022-07-06T01:02:39;6.28;;;2.72;;
73428;SDS011;61643;49.564;17.412;2022-07-06T01:05:05;7.72;;;2.70;;
73428;SDS011;61643;49.564;17.412;2022-07-06T01:07:32;9.65;;;3.10;;
73428;SDS011;61643;49.564;17.412;2022-07-06T01:09:59;7.85;;;2.70;;
73428;SDS011;61643;49.564;17.412;2022-07-06T01:12:24;3.57;;;2.50;;
73428;SDS011;61643;49.564;17.412;2022-07-06T01:14:50;4.43;;;2.80;;
73428;SDS011;61643;49.564;17.412;2022-07-06T01:17:16;7.00;;;2.80;;
73428;SDS011;61643;49.564;17.412;2022-07-06T01:19:42;3.13;;;2.83;;
73428;SDS011;61643;49.564;17.412;2022-07-06T01:22:08;6.00;;;3.30;;
73428;SDS011;61643;49.564;17.412;2022-07-06T01:24:35;4.95;;;3.17;;
73428;SDS011;61643;49.564;17.412;2022-07-06T01:27:00;4.40;;;2.72;;
73428;SDS011;61643;49.564;17.412;2022-07-06T01:29:26;6.00;;;2.88;;
73428;SDS011;61643;49.564;17.412;2022-07-06T01:31:52;7.22;;;2.80;;
73428;SDS011;61643;49.564;17.412;2022-07-06T01:34:17;9.55;;;2.83;;
73428;SDS011;61643;49.564;17.412;2022-07-06T01:36:44;11.05;;;3.08;;
73428;SDS011;61643;49.564;17.412;2022-07-06T01:39:09;8.80;;;2.80;;
73428;SDS011;61643;49.564;17.412;2022-07-06T01:41:36;8.00;;;3.00;;
73428;SDS011;61643;49.564;17.412;2022-07-06T01:44:01;10.80;;;3.22;;
73428;SDS011;61643;49.564;17.412;2022-07-06T01:46:28;11.90;;;2.83;;
73428;SDS011;61643;49.564;17.412;2022-07-06T01:48:53;6.40;;;2.80;;
73428;SDS011;61643;49.564;17.412;2022-07-06T01:51:19;9.35;;;3.05;;
73428;SDS011;61643;49.564;17.412;2022-07-06T01:53:44;5.20;;;2.75;;
73428;SDS011;61643;49.564;17.412;2022-07-06T01:56:11;7.20;;;2.65;;
73428;SDS011;61643;49.564;17.412;2022-07-06T01:58:37;5.22;;;3.30;;
73428;SDS011;61643;49.564;17.412;2022-07-06T02:01:21;6.95;;;3.00;;
73428;SDS011;61643;49.564;17.412;2022-07-06T02:03:47;3.85;;;2.65;;
73428;SDS011;61643;49.564;17.412;2022-07-06T02:06:12;4.93;;;2.78;;
73428;SDS011;61643;49.564;17.412;2022-07-06T02:08:38;3.63;;;2.70;;
73428;SDS011;61643;49.564;17.412;2022-07-06T02:11:05;4.63;;;2.90;;
73428;SDS011;61643;49.564;17.412;2022-07-06T02:13:31;5.03;;;2.92;;
73428;SDS011;61643;49.564;17.412;2022-07-06T02:15:58;5.43;;;2.70;;
73428;SDS011;61643;49.564;17.412;2022-07-06T02:18:23;7.88;;;3.13;;
73428;SDS011;61643;49.564;17.412;2022-07-06T02:20:49;3.00;;;2.67;;
73428;SDS011;61643;49.564;17.412;2022-07-06T02:23:14;3.60;;;2.75;;
73428;SDS011;61643;49.564;17.412;2022-07-06T02:25:40;6.63;;;2.85;;
73428;SDS011;61643;49.564;17.412;2022-07-06T02:28:05;5.25;;;2.60;;
73428;SDS011;61643;49.564;17.412;2022-07-06T02:30:30;6.60;;;2.80;;
73428;SDS011;61643;49.564;17.412;2022-07-06T02:32:56;7.97;;;2.90;;
73428;SDS011;61643;49.564;17.412;2022-07-06T02:35:21;9.60;;;2.90;;
73428;SDS011;61643;49.564;17.412;2022-07-06T02:37:47;6.55;;;3.00;;
73428;SDS011;61643;49.564;17.412;2022-07-06T02:40:13;7.68;;;2.88;;
73428;SDS011;61643;49.564;17.412;2022-07-06T02:42:39;7.05;;;2.70;;
73428;SDS011;61643;49.564;17.412;2022-07-06T02:45:04;11.32;;;2.70;;
73428;SDS011;61643;49.564;17.412;2022-07-06T02:47:30;7.60;;;2.67;;
73428;SDS011;61643;49.564;17.412;2022-07-06T02:49:56;7.35;;;2.63;;
73428;SDS011;61643;49.564;17.412;2022-07-06T02:52:21;7.73;;;2.40;;
73428;SDS011;61643;49.564;17.412;2022-07-06T02:54:47;6.53;;;2.42;;
73428;SDS011;61643;49.564;17.412;2022-07-06T02:57:13;10.10;;;2.78;;
73428;SDS011;61643;49.564;17.412;2022-07-06T02:59:39;11.13;;;2.67;;
73428;SDS011;61643;49.564;17.412;2022-07-06T03:02:05;9.13;;;2.90;;
73428;SDS011;61643;49.564;17.412;2022-07-06T03:04:30;4.90;;;2.67;;
73428;SDS011;61643;49.564;17.412;2022-07-06T03:06:56;11.88;;;2.97;;
73428;SDS011;61643;49.564;17.412;2022-07-06T03:09:21;6.10;;;2.70;;
73428;SDS011;61643;49.564;17.412;2022-07-06T03:11:46;10.77;;;2.90;;
73428;SDS011;61643;49.564;17.412;2022-07-06T03:14:12;6.13;;;2.63;;
73428;SDS011;61643;49.564;17.412;2022-07-06T03:16:37;6.50;;;2.80;;
73428;SDS011;61643;49.564;17.412;2022-07-06T03:19:03;14.90;;;2.75;;
73428;SDS011;61643;49.564;17.412;2022-07-06T03:21:28;10.77;;;2.87;;
73428;SDS011;61643;49.564;17.412;2022-07-06T03:23:53;14.30;;;2.97;;
73428;SDS011;61643;49.564;17.412;2022-07-06T03:26:19;11.25;;;2.75;;
73428;SDS011;61643;49.564;17.412;2022-07-06T03:28:44;9.77;;;2.60;;
73428;SDS011;61643;49.564;17.412;2022-07-06T03:31:10;5.47;;;2.37;;
73428;SDS011;61643;49.564;17.412;2022-07-06T03:33:35;6.72;;;2.60;;
73428;SDS011;61643;49.564;17.412;2022-07-06T03:36:01;6.65;;;3.08;;
73428;SDS011;61643;49.564;17.412;2022-07-06T03:38:26;6.15;;;2.70;;
73428;SDS011;61643;49.564;17.412;2022-07-06T03:40:51;6.20;;;2.67;;
73428;SDS011;61643;49.564;17.412;2022-07-06T03:43:17;6.07;;;2.80;;
73428;SDS011;61643;49.564;17.412;2022-07-06T03:45:42;9.87;;;3.00;;
73428;SDS011;61643;49.564;17.412;2022-07-06T03:48:08;8.50;;;2.80;;
73428;SDS011;61643;49.564;17.412;2022-07-06T03:50:34;9.25;;;2.80;;
73428;SDS011;61643;49.564;17.412;2022-07-06T03:52:59;4.43;;;3.10;;
73428;SDS011;61643;49.564;17.412;2022-07-06T03:55:25;6.53;;;2.97;;
73428;SDS011;61643;49.564;17.412;2022-07-06T03:57:50;4.65;;;2.45;;
73428;SDS011;61643;49.564;17.412;2022-07-06T04:00:15;4.27;;;2.47;;
73428;SDS011;61643;49.564;17.412;2022-07-06T04:02:41;8.77;;;2.80;;
73428;SDS011;61643;49.564;17.412;2022-07-06T04:05:07;7.05;;;2.55;;
73428;SDS011;61643;49.564;17.412;2022-07-06T04:07:32;4.38;;;2.60;;
73428;SDS011;61643;49.564;17.412;2022-07-06T04:09:58;2.97;;;2.50;;
73428;SDS011;61643;49.564;17.412;2022-07-06T04:12:23;5.43;;;2.70;;
73428;SDS011;61643;49.564;17.412;2022-07-06T04:14:49;6.00;;;2.40;;
73428;SDS011;61643;49.564;17.412;2022-07-06T04:17:14;5.57;;;2.80;;
73428;SDS011;61643;49.564;17.412;2022-07-06T04:19:58;5.10;;;2.47;;
73428;SDS011;61643;49.564;17.412;2022-07-06T04:22:24;5.63;;;2.50;;
73428;SDS011;61643;49.564;17.412;2022-07-06T04:24:49;8.68;;;2.33;;
73428;SDS011;61643;49.564;17.412;2022-07-06T04:27:15;4.10;;;2.40;;
73428;SDS011;61643;49.564;17.412;2022-07-06T04:29:40;3.97;;;2.20;;
73428;SDS011;61643;49.564;17.412;2022-07-06T04:32:06;5.13;;;2.38;;
73428;SDS011;61643;49.564;17.412;2022-07-06T04:34:32;5.10;;;2.47;;
73428;SDS011;61643;49.564;17.412;2022-07-06T04:36:57;9.25;;;2.60;;
73428;SDS011;61643;49.564;17.412;2022-07-06T04:39:23;4.43;;;2.33;;
73428;SDS011;61643;49.564;17.412;2022-07-06T04:41:48;10.70;;;2.50;;
73428;SDS011;61643;49.564;17.412;2022-07-06T04:44:14;5.43;;;2.40;;
73428;SDS011;61643;49.564;17.412;2022-07-06T04:46:39;6.93;;;2.60;;
73428;SDS011;61643;49.564;17.412;2022-07-06T04:49:04;11.67;;;2.70;;
73428;SDS011;61643;49.564;17.412;2022-07-06T04:51:30;7.33;;;2.67;;
73428;SDS011;61643;49.564;17.412;2022-07-06T04:53:55;11.05;;;2.40;;
73428;SDS011;61643;49.564;17.412;2022-07-06T04:56:20;9.70;;;2.50;;
73428;SDS011;61643;49.564;17.412;2022-07-06T04:58:46;12.83;;;2.83;;
73428;SDS011;61643;49.564;17.412;2022-07-06T05:01:11;7.47;;;2.93;;
73428;SDS011;61643;49.564;17.412;2022-07-06T05:03:37;9.57;;;2.67;;
73428;SDS011;61643;49.564;17.412;2022-07-06T05:06:05;7.88;;;2.75;;
73428;SDS011;61643;49.564;17.412;2022-07-06T05:08:31;7.57;;;2.40;;
73428;SDS011;61643;49.564;17.412;2022-07-06T05:10:57;7.97;;;2.50;;
73428;SDS011;61643;49.564;17.412;2022-07-06T05:13:22;10.40;;;3.00;;
73428;SDS011;61643;49.564;17.412;2022-07-06T05:15:47;4.97;;;2.60;;
73428;SDS011;61643;49.564;17.412;2022-07-06T05:18:13;5.95;;;2.65;;
73428;SDS011;61643;49.564;17.412;2022-07-06T05:20:38;7.57;;;2.70;;
73428;SDS011;61643;49.564;17.412;2022-07-06T05:23:04;6.72;;;3.10;;
73428;SDS011;61643;49.564;17.412;2022-07-06T05:25:29;9.10;;;2.90;;
73428;SDS011;61643;49.564;17.412;2022-07-06T05:27:55;6.35;;;3.00;;
73428;SDS011;61643;49.564;17.412;2022-07-06T05:30:20;6.53;;;2.80;;
73428;SDS011;61643;49.564;17.412;2022-07-06T05:32:46;9.48;;;2.75;;
73428;SDS011;61643;49.564;17.412;2022-07-06T05:35:11;11.40;;;3.42;;
73428;SDS011;61643;49.564;17.412;2022-07-06T05:37:37;8.73;;;2.72;;
73428;SDS011;61643;49.564;17.412;2022-07-06T05:40:02;6.73;;;3.00;;
73428;SDS011;61643;49.564;17.412;2022-07-06T05:42:28;6.60;;;2.80;;
73428;SDS011;61643;49.564;17.412;2022-07-06T05:44:56;6.57;;;2.70;;
73428;SDS011;61643;49.564;17.412;2022-07-06T05:47:22;2.92;;;2.13;;
73428;SDS011;61643;49.564;17.412;2022-07-06T05:50:06;6.60;;;2.60;;
73428;SDS011;61643;49.564;17.412;2022-07-06T05:52:41;6.00;;;2.40;;
73428;SDS011;61643;49.564;17.412;2022-07-06T05:55:11;6.90;;;2.75;;
73428;SDS011;61643;49.564;17.412;2022-07-06T05:57:40;3.10;;;2.80;;
73428;SDS011;61643;49.564;17.412;2022-07-06T06:00:05;4.45;;;2.63;;
73428;SDS011;61643;49.564;17.412;2022-07-06T06:02:41;3.85;;;2.55;;
73428;SDS011;61643;49.564;17.412;2022-07-06T06:05:08;5.60;;;2.80;;
73428;SDS011;61643;49.564;17.412;2022-07-06T06:07:37;4.20;;;2.70;;
73428;SDS011;61643;49.564;17.412;2022-07-06T06:10:04;9.05;;;2.72;;
73428;SDS011;61643;49.564;17.412;2022-07-06T06:12:34;5.85;;;2.67;;
73428;SDS011;61643;49.564;17.412;2022-07-06T06:14:59;3.20;;;2.50;;
73428;SDS011;61643;49.564;17.412;2022-07-06T06:17:25;4.05;;;2.35;;
73428;SDS011;61643;49.564;17.412;2022-07-06T06:19:50;6.00;;;2.63;;
73428;SDS011;61643;49.564;17.412;2022-07-06T06:22:16;6.82;;;2.85;;
73428;SDS011;61643;49.564;17.412;2022-07-06T06:24:41;3.55;;;2.35;;
73428;SDS011;61643;49.564;17.412;2022-07-06T06:27:06;4.93;;;2.80;;
73428;SDS011;61643;49.564;17.412;2022-07-06T06:29:32;2.97;;;2.63;;
73428;SDS011;61643;49.564;17.412;2022-07-06T06:31:58;5.57;;;3.08;;
73428;SDS011;61643;49.564;17.412;2022-07-06T06:34:23;4.40;;;2.70;;
73428;SDS011;61643;49.564;17.412;2022-07-06T06:36:49;7.07;;;2.83;;
73428;SDS011;61643;49.564;17.412;2022-07-06T06:39:14;8.63;;;2.78;;
73428;SDS011;61643;49.564;17.412;2022-07-06T06:41:40;7.63;;;3.20;;
73428;SDS011;61643;49.564;17.412;2022-07-06T06:44:05;4.13;;;3.00;;
73428;SDS011;61643;49.564;17.412;2022-07-06T06:46:30;4.07;;;2.83;;
73428;SDS011;61643;49.564;17.412;2022-07-06T06:48:56;8.43;;;3.17;;
73428;SDS011;61643;49.564;17.412;2022-07-06T06:51:21;6.18;;;2.92;;
73428;SDS011;61643;49.564;17.412;2022-07-06T06:53:47;9.00;;;3.00;;
73428;SDS011;61643;49.564;17.412;2022-07-06T06:56:12;6.22;;;3.00;;
73428;SDS011;61643;49.564;17.412;2022-07-06T06:58:38;7.53;;;3.22;;
73428;SDS011;61643;49.564;17.412;2022-07-06T07:01:03;8.18;;;3.00;;
73428;SDS011;61643;49.564;17.412;2022-07-06T07:03:29;7.03;;;3.30;;
73428;SDS011;61643;49.564;17.412;2022-07-06T07:05:55;4.22;;;3.20;;
73428;SDS011;61643;49.564;17.412;2022-07-06T07:08:21;6.90;;;3.22;;
73428;SDS011;61643;49.564;17.412;2022-07-06T07:10:46;4.50;;;2.90;;
73428;SDS011;61643;49.564;17.412;2022-07-06T07:13:12;8.18;;;3.53;;
73428;SDS011;61643;49.564;17.412;2022-07-06T07:15:37;5.70;;;3.17;;
73428;SDS011;61643;49.564;17.412;2022-07-06T07:18:03;15.90;;;3.33;;
73428;SDS011;61643;49.564;17.412;2022-07-06T07:20:28;6.53;;;2.92;;
73428;SDS011;61643;49.564;17.412;2022-07-06T07:22:55;7.10;;;3.30;;
73428;SDS011;61643;49.564;17.412;2022-07-06T07:25:21;7.25;;;3.15;;
73428;SDS011;61643;49.564;17.412;2022-07-06T07:27:46;6.97;;;3.43;;
73428;SDS011;61643;49.564;17.412;2022-07-06T07:30:11;4.70;;;2.70;;
73428;SDS011;61643;49.564;17.412;2022-07-06T07:32:37;5.00;;;3.08;;
73428;SDS011;61643;49.564;17.412;2022-07-06T07:35:05;6.28;;;3.17;;
73428;SDS011;61643;49.564;17.412;2022-07-06T07:37:31;7.78;;;3.00;;
73428;SDS011;61643;49.564;17.412;2022-07-06T07:39:57;12.63;;;3.25;;
73428;SDS011;61643;49.564;17.412;2022-07-06T07:42:22;5.75;;;3.15;;
73428;SDS011;61643;49.564;17.412;2022-07-06T07:44:47;6.07;;;2.87;;
73428;SDS011;61643;49.564;17.412;2022-07-06T07:47:13;8.05;;;3.40;;
73428;SDS011;61643;49.564;17.412;2022-07-06T07:49:38;4.55;;;3.15;;
73428;SDS011;61643;49.564;17.412;2022-07-06T07:52:04;5.60;;;3.42;;
73428;SDS011;61643;49.564;17.412;2022-07-06T07:54:30;7.55;;;3.42;;
73428;SDS011;61643;49.564;17.412;2022-07-06T07:56:55;6.93;;;3.20;;
73428;SDS011;61643;49.564;17.412;2022-07-06T07:59:20;7.15;;;3.58;;
73428;SDS011;61643;49.564;17.412;2022-07-06T08:01:46;5.57;;;3.70;;
73428;SDS011;61643;49.564;17.412;2022-07-06T08:04:11;9.30;;;4.03;;
73428;SDS011;61643;49.564;17.412;2022-07-06T08:06:36;6.77;;;3.80;;
73428;SDS011;61643;49.564;17.412;2022-07-06T08:09:02;11.25;;;4.78;;
73428;SDS011;61643;49.564;17.412;2022-07-06T08:11:29;13.90;;;4.70;;
73428;SDS011;61643;49.564;17.412;2022-07-06T08:13:55;8.33;;;3.93;;
73428;SDS011;61643;49.564;17.412;2022-07-06T08:16:20;7.32;;;4.10;;
73428;SDS011;61643;49.564;17.412;2022-07-06T08:18:45;7.07;;;3.55;;
73428;SDS011;61643;49.564;17.412;2022-07-06T08:21:11;18.70;;;10.97;;
73428;SDS011;61643;49.564;17.412;2022-07-06T08:23:36;7.65;;;5.07;;
73428;SDS011;61643;49.564;17.412;2022-07-06T08:26:02;6.43;;;3.95;;
73428;SDS011;61643;49.564;17.412;2022-07-06T08:28:28;12.18;;;5.65;;
73428;SDS011;61643;49.564;17.412;2022-07-06T08:30:54;5.68;;;5.10;;
73428;SDS011;61643;49.564;17.412;2022-07-06T08:33:20;8.37;;;3.87;;
73428;SDS011;61643;49.564;17.412;2022-07-06T08:35:45;5.72;;;4.25;;
73428;SDS011;61643;49.564;17.412;2022-07-06T08:38:11;5.18;;;3.60;;
73428;SDS011;61643;49.564;17.412;2022-07-06T08:40:36;7.73;;;3.60;;
73428;SDS011;61643;49.564;17.412;2022-07-06T08:43:04;4.43;;;3.35;;
73428;SDS011;61643;49.564;17.412;2022-07-06T08:45:29;5.60;;;3.43;;
73428;SDS011;61643;49.564;17.412;2022-07-06T08:47:55;3.33;;;3.03;;
73428;SDS011;61643;49.564;17.412;2022-07-06T08:50:27;4.30;;;3.08;;
73428;SDS011;61643;49.564;17.412;2022-07-06T08:52:52;4.97;;;3.00;;
73428;SDS011;61643;49.564;17.412;2022-07-06T08:55:19;6.38;;;3.60;;
73428;SDS011;61643;49.564;17.412;2022-07-06T08:57:47;4.67;;;3.60;;
73428;SDS011;61643;49.564;17.412;2022-07-06T09:00:14;3.65;;;3.13;;
73428;SDS011;61643;49.564;17.412;2022-07-06T09:02:40;4.25;;;3.00;;
73428;SDS011;61643;49.564;17.412;2022-07-06T09:05:06;4.88;;;3.10;;
73428;SDS011;61643;49.564;17.412;2022-07-06T09:07:33;6.78;;;3.10;;
73428;SDS011;61643;49.564;17.412;2022-07-06T09:09:59;4.22;;;3.00;;
73428;SDS011;61643;49.564;17.412;2022-07-06T09:12:28;5.38;;;2.90;;
73428;SDS011;61643;49.564;17.412;2022-07-06T09:14:54;20.00;;;8.80;;
73428;SDS011;61643;49.564;17.412;2022-07-06T09:17:22;9.18;;;7.03;;
73428;SDS011;61643;49.564;17.412;2022-07-06T09:19:51;11.57;;;6.18;;
73428;SDS011;61643;49.564;17.412;2022-07-06T09:22:27;4.90;;;3.67;;
73428;SDS011;61643;49.564;17.412;2022-07-06T09:25:00;5.75;;;3.38;;
73428;SDS011;61643;49.564;17.412;2022-07-06T09:27:28;5.57;;;2.90;;
73428;SDS011;61643;49.564;17.412;2022-07-06T09:29:53;3.33;;;2.70;;
73428;SDS011;61643;49.564;17.412;2022-07-06T09:32:21;3.97;;;3.50;;
73428;SDS011;61643;49.564;17.412;2022-07-06T09:34:47;3.83;;;3.47;;
73428;SDS011;61643;49.564;17.412;2022-07-06T09:37:13;3.60;;;2.92;;
73428;SDS011;61643;49.564;17.412;2022-07-06T09:39:39;4.85;;;4.43;;
73428;SDS011;61643;49.564;17.412;2022-07-06T09:42:05;4.32;;;3.53;;
73428;SDS011;61643;49.564;17.412;2022-07-06T09:44:39;3.85;;;3.15;;
73428;SDS011;61643;49.564;17.412;2022-07-06T09:47:07;3.42;;;3.03;;
73428;SDS011;61643;49.564;17.412;2022-07-06T09:49:34;4.40;;;3.05;;
73428;SDS011;61643;49.564;17.412;2022-07-06T09:52:02;4.88;;;3.17;;
73428;SDS011;61643;49.564;17.412;2022-07-06T09:54:29;4.70;;;3.22;;
73428;SDS011;61643;49.564;17.412;2022-07-06T09:56:55;3.70;;;2.83;;
73428;SDS011;61643;49.564;17.412;2022-07-06T09:59:23;3.92;;;3.15;;
73428;SDS011;61643;49.564;17.412;2022-07-06T10:01:52;6.57;;;3.42;;
73428;SDS011;61643;49.564;17.412;2022-07-06T10:04:19;4.63;;;3.08;;
73428;SDS011;61643;49.564;17.412;2022-07-06T10:06:46;3.33;;;2.60;;
73428;SDS011;61643;49.564;17.412;2022-07-06T10:09:13;3.75;;;2.85;;
73428;SDS011;61643;49.564;17.412;2022-07-06T10:12:01;7.57;;;2.80;;
73428;SDS011;61643;49.564;17.412;2022-07-06T10:14:26;3.13;;;2.83;;
73428;SDS011;61643;49.564;17.412;2022-07-06T10:16:56;3.80;;;3.15;;
73428;SDS011;61643;49.564;17.412;2022-07-06T10:19:25;3.47;;;2.45;;
73428;SDS011;61643;49.564;17.412;2022-07-06T10:21:51;2.22;;;2.03;;
73428;SDS011;61643;49.564;17.412;2022-07-06T10:24:17;3.10;;;2.42;;
73428;SDS011;61643;49.564;17.412;2022-07-06T10:26:44;3.10;;;2.58;;
73428;SDS011;61643;49.564;17.412;2022-07-06T10:29:11;4.18;;;2.70;;
73428;SDS011;61643;49.564;17.412;2022-07-06T10:31:45;3.77;;;3.03;;
73428;SDS011;61643;49.564;17.412;2022-07-06T10:34:14;3.75;;;3.40;;
73428;SDS011;61643;49.564;17.412;2022-07-06T10:36:43;3.60;;;3.30;;
73428;SDS011;61643;49.564;17.412;2022-07-06T10:39:12;3.05;;;2.80;;
73428;SDS011;61643;49.564;17.412;2022-07-06T10:41:57;4.35;;;3.95;;
73428;SDS011;61643;49.564;17.412;2022-07-06T10:44:24;5.40;;;2.50;;
73428;SDS011;61643;49.564;17.412;2022-07-06T10:46:59;3.42;;;2.50;;
73428;SDS011;61643;49.564;17.412;2022-07-06T10:49:26;3.63;;;2.80;;
73428;SDS011;61643;49.564;17.412;2022-07-06T10:51:52;3.30;;;3.00;;
73428;SDS011;61643;49.564;17.412;2022-07-06T10:54:18;3.85;;;3.45;;
73428;SDS011;61643;49.564;17.412;2022-07-06T10:56:45;2.50;;;2.30;;
73428;SDS011;61643;49.564;17.412;2022-07-06T11:02:10;3.83;;;3.47;;
73428;SDS011;61643;49.564;17.412;2022-07-06T11:04:39;3.38;;;2.75;;
73428;SDS011;61643;49.564;17.412;2022-07-06T11:07:09;6.78;;;2.80;;
73428;SDS011;61643;49.564;17.412;2022-07-06T11:09:36;2.78;;;2.28;;
73428;SDS011;61643;49.564;17.412;2022-07-06T11:12:16;5.15;;;3.15;;
73428;SDS011;61643;49.564;17.412;2022-07-06T11:14:46;2.10;;;1.98;;
73428;SDS011;61643;49.564;17.412;2022-07-06T11:17:13;2.40;;;2.20;;
73428;SDS011;61643;49.564;17.412;2022-07-06T11:19:55;2.67;;;2.35;;
73428;SDS011;61643;49.564;17.412;2022-07-06T11:22:23;6.22;;;2.30;;
73428;SDS011;61643;49.564;17.412;2022-07-06T11:27:17;3.03;;;1.90;;
73428;SDS011;61643;49.564;17.412;2022-07-06T11:29:43;2.50;;;2.10;;
73428;SDS011;61643;49.564;17.412;2022-07-06T11:32:10;2.42;;;2.22;;
73428;SDS011;61643;49.564;17.412;2022-07-06T11:34:38;3.63;;;2.83;;
73428;SDS011;61643;49.564;17.412;2022-07-06T11:37:06;4.22;;;2.10;;
73428;SDS011;61643;49.564;17.412;2022-07-06T11:39:34;2.95;;;2.55;;
73428;SDS011;61643;49.564;17.412;2022-07-06T11:42:01;2.50;;;2.30;;
73428;SDS011;61643;49.564;17.412;2022-07-06T11:44:29;4.50;;;2.10;;
73428;SDS011;61643;49.564;17.412;2022-07-06T11:46:54;3.00;;;2.53;;
73428;SDS011;61643;49.564;17.412;2022-07-06T11:49:21;2.30;;;2.10;;
73428;SDS011;61643;49.564;17.412;2022-07-06T11:51:47;4.03;;;2.03;;
73428;SDS011;61643;49.564;17.412;2022-07-06T11:54:16;2.58;;;2.38;;
73428;SDS011;61643;49.564;17.412;2022-07-06T11:56:47;2.50;;;2.30;;
73428;SDS011;61643;49.564;17.412;2022-07-06T11:59:20;2.30;;;2.10;;
73428;SDS011;61643;49.564;17.412;2022-07-06T12:01:50;2.03;;;1.83;;
73428;SDS011;61643;49.564;17.412;2022-07-06T12:04:33;2.42;;;1.95;;
73428;SDS011;61643;49.564;17.412;2022-07-06T12:07:00;3.20;;;2.00;;
73428;SDS011;61643;49.564;17.412;2022-07-06T12:09:29;3.17;;;2.08;;
73428;SDS011;61643;49.564;17.412;2022-07-06T12:11:55;1.80;;;1.70;;
73428;SDS011;61643;49.564;17.412;2022-07-06T12:14:21;1.65;;;1.55;;
73428;SDS011;61643;49.564;17.412;2022-07-06T12:16:48;2.50;;;2.30;;
73428;SDS011;61643;49.564;17.412;2022-07-06T12:19:14;2.00;;;1.60;;
73428;SDS011;61643;49.564;17.412;2022-07-06T12:21:44;2.30;;;2.10;;
73428;SDS011;61643;49.564;17.412;2022-07-06T12:24:16;2.78;;;1.50;;
73428;SDS011;61643;49.564;17.412;2022-07-06T12:26:43;3.55;;;1.40;;
73428;SDS011;61643;49.564;17.412;2022-07-06T12:29:10;1.53;;;1.33;;
73428;SDS011;61643;49.564;17.412;2022-07-06T12:31:43;1.30;;;1.20;;
73428;SDS011;61643;49.564;17.412;2022-07-06T12:36:51;2.03;;;1.30;;
73428;SDS011;61643;49.564;17.412;2022-07-06T12:39:18;1.35;;;1.30;;
73428;SDS011;61643;49.564;17.412;2022-07-06T12:41:49;1.40;;;1.30;;
73428;SDS011;61643;49.564;17.412;2022-07-06T12:44:22;1.48;;;1.38;;
73428;SDS011;61643;49.564;17.412;2022-07-06T12:47:10;1.10;;;1.00;;
73428;SDS011;61643;49.564;17.412;2022-07-06T12:49:35;1.38;;;1.20;;
73428;SDS011;61643;49.564;17.412;2022-07-06T12:54:44;0.90;;;0.90;;
73428;SDS011;61643;49.564;17.412;2022-07-06T12:57:15;2.10;;;1.20;;
73428;SDS011;61643;49.564;17.412;2022-07-06T12:59:42;2.60;;;1.20;;
73428;SDS011;61643;49.564;17.412;2022-07-06T13:04:57;2.38;;;1.52;;
73428;SDS011;61643;49.564;17.412;2022-07-06T13:07:32;2.00;;;1.20;;
73428;SDS011;61643;49.564;17.412;2022-07-06T13:10:11;1.95;;;1.23;;
73428;SDS011;61643;49.564;17.412;2022-07-06T13:12:39;1.10;;;1.10;;
73428;SDS011;61643;49.564;17.412;2022-07-06T13:15:06;0.90;;;0.90;;
73428;SDS011;61643;49.564;17.412;2022-07-06T13:17:32;1.13;;;1.13;;
73428;SDS011;61643;49.564;17.412;2022-07-06T13:19:58;1.45;;;1.10;;
73428;SDS011;61643;49.564;17.412;2022-07-06T13:22:24;1.40;;;1.30;;
73428;SDS011;61643;49.564;17.412;2022-07-06T13:24:49;1.40;;;1.30;;
73428;SDS011;61643;49.564;17.412;2022-07-06T13:27:14;1.30;;;1.20;;
73428;SDS011;61643;49.564;17.412;2022-07-06T13:29:40;1.48;;;1.20;;
73428;SDS011;61643;49.564;17.412;2022-07-06T13:32:06;2.07;;;1.20;;
73428;SDS011;61643;49.564;17.412;2022-07-06T13:34:32;0.95;;;0.90;;
73428;SDS011;61643;49.564;17.412;2022-07-06T13:36:58;1.63;;;1.10;;
73428;SDS011;61643;49.564;17.412;2022-07-06T13:39:23;2.00;;;1.20;;
73428;SDS011;61643;49.564;17.412;2022-07-06T13:41:52;1.33;;;1.23;;
73428;SDS011;61643;49.564;17.412;2022-07-06T13:44:17;1.10;;;1.00;;
73428;SDS011;61643;49.564;17.412;2022-07-06T13:46:43;1.73;;;1.13;;
73428;SDS011;61643;49.564;17.412;2022-07-06T13:49:09;1.27;;;1.17;;
73428;SDS011;61643;49.564;17.412;2022-07-06T13:51:34;1.10;;;1.10;;
73428;SDS011;61643;49.564;17.412;2022-07-06T13:54:00;2.67;;;1.27;;
73428;SDS011;61643;49.564;17.412;2022-07-06T13:56:26;1.92;;;1.10;;
73428;SDS011;61643;49.564;17.412;2022-07-06T13:58:52;1.10;;;1.00;;
73428;SDS011;61643;49.564;17.412;2022-07-06T14:01:17;0.98;;;0.98;;
73428;SDS011;61643;49.564;17.412;2022-07-06T14:03:43;1.20;;;1.10;;
73428;SDS011;61643;49.564;17.412;2022-07-06T14:06:08;2.10;;;1.20;;
73428;SDS011;61643;49.564;17.412;2022-07-06T14:08:34;1.20;;;1.10;;
73428;SDS011;61643;49.564;17.412;2022-07-06T14:11:01;1.20;;;1.10;;
73428;SDS011;61643;49.564;17.412;2022-07-06T14:13:26;2.80;;;1.20;;
73428;SDS011;61643;49.564;17.412;2022-07-06T14:15:52;1.60;;;1.33;;
73428;SDS011;61643;49.564;17.412;2022-07-06T14:18:18;1.35;;;1.20;;
73428;SDS011;61643;49.564;17.412;2022-07-06T14:20:45;1.30;;;1.08;;
73428;SDS011;61643;49.564;17.412;2022-07-06T14:23:11;1.30;;;1.20;;
73428;SDS011;61643;49.564;17.412;2022-07-06T14:25:37;1.08;;;1.00;;
73428;SDS011;61643;49.564;17.412;2022-07-06T14:28:03;1.13;;;1.05;;
73428;SDS011;61643;49.564;17.412;2022-07-06T14:30:29;2.45;;;1.17;;
73428;SDS011;61643;49.564;17.412;2022-07-06T14:32:55;1.58;;;1.02;;
73428;SDS011;61643;49.564;17.412;2022-07-06T14:35:21;1.25;;;1.00;;
73428;SDS011;61643;49.564;17.412;2022-07-06T14:37:47;1.75;;;0.90;;
73428;SDS011;61643;49.564;17.412;2022-07-06T14:40:13;1.00;;;1.00;;
73428;SDS011;61643;49.564;17.412;2022-07-06T14:42:38;1.23;;;0.90;;
73428;SDS011;61643;49.564;17.412;2022-07-06T14:45:03;1.33;;;1.10;;